createdAt,value
2019-06-08T00:00:27.914Z,21.10
2019-06-08T00:02:57.744Z,20.90
2019-06-08T00:05:27.572Z,21.00
2019-06-08T00:07:57.487Z,21.10
2019-06-08T00:10:27.309Z,21.10
2019-06-08T00:12:57.084Z,21.30
2019-06-08T00:15:26.985Z,21.40
2019-06-08T00:17:59.350Z,21.30
2019-06-08T00:20:28.386Z,21.30
2019-06-08T00:22:58.297Z,21.10
2019-06-08T00:25:28.095Z,21.00
2019-06-08T00:27:58.083Z,21.10
2019-06-08T00:30:28.838Z,21.10
2019-06-08T00:32:58.860Z,21.10
2019-06-08T00:35:28.689Z,21.10
2019-06-08T00:37:58.617Z,21.10
2019-06-08T00:40:28.394Z,21.10
2019-06-08T00:42:58.235Z,21.10
2019-06-08T00:45:28.019Z,21.00
2019-06-08T00:47:57.878Z,21.00
2019-06-08T00:50:29.222Z,20.90
2019-06-08T00:52:59.288Z,20.90
2019-06-08T00:55:29.903Z,21.00
2019-06-08T00:57:59.847Z,21.00
2019-06-08T01:00:30.717Z,21.00
2019-06-08T01:03:00.723Z,20.80
2019-06-08T01:05:30.605Z,20.80
2019-06-08T01:08:00.430Z,20.70
2019-06-08T01:10:30.590Z,20.80
2019-06-08T01:13:00.406Z,20.80
2019-06-08T01:15:34.083Z,20.70
2019-06-08T01:18:04.123Z,20.60
2019-06-08T01:20:52.169Z,20.50
2019-06-08T01:23:29.877Z,20.60
2019-06-08T01:25:59.731Z,20.50
2019-06-08T01:28:30.266Z,20.40
2019-06-08T01:31:00.389Z,20.30
2019-06-08T01:33:30.874Z,20.40
2019-06-08T01:36:00.799Z,20.50
2019-06-08T01:38:31.212Z,20.30
2019-06-08T01:41:01.299Z,20.40
2019-06-08T01:43:31.804Z,20.30
2019-06-08T01:46:01.700Z,20.30
2019-06-08T01:48:32.308Z,20.30
2019-06-08T01:51:02.340Z,20.40
2019-06-08T01:53:32.999Z,20.50
2019-06-08T01:56:03.023Z,20.40
2019-06-08T01:58:33.513Z,20.50
2019-06-08T02:01:03.567Z,20.60
2019-06-08T02:03:34.789Z,20.30
2019-06-08T02:06:04.925Z,20.10
2019-06-08T02:08:34.854Z,20.20
2019-06-08T02:11:05.161Z,20.40
2019-06-08T02:13:35.257Z,20.40
2019-06-08T02:16:05.595Z,20.60
2019-06-08T02:18:47.076Z,20.60
2019-06-08T02:21:07.051Z,20.60
2019-06-08T02:23:36.984Z,20.60
2019-06-08T02:26:06.872Z,20.50
2019-06-08T02:28:36.800Z,20.60
2019-06-08T02:31:06.927Z,20.60
2019-06-08T02:33:37.351Z,20.40
2019-06-08T02:36:07.376Z,20.40
2019-06-08T02:38:37.263Z,20.50
2019-06-08T02:41:07.573Z,20.50
2019-06-08T02:43:38.391Z,20.40
2019-06-08T02:46:09.169Z,20.40
2019-06-08T02:49:00.279Z,20.40
2019-06-08T02:51:10.734Z,20.40
2019-06-08T02:53:41.555Z,20.30
2019-06-08T02:56:16.403Z,20.40
2019-06-08T02:58:46.860Z,20.50
2019-06-08T03:01:19.605Z,20.30
2019-06-08T03:03:51.801Z,20.50
2019-06-08T03:06:22.416Z,20.40
2019-06-08T03:08:54.541Z,20.50
2019-06-08T03:11:26.139Z,20.50
2019-06-08T03:13:58.658Z,20.40
2019-06-08T03:16:28.427Z,20.40
2019-06-08T03:18:58.255Z,20.40
2019-06-08T03:21:28.120Z,20.40
2019-06-08T03:23:57.907Z,20.20
2019-06-08T03:26:28.005Z,20.30
2019-06-08T03:28:57.828Z,20.20
2019-06-08T03:31:27.641Z,20.30
2019-06-08T03:33:57.545Z,20.30
2019-06-08T03:36:27.387Z,20.20
2019-06-08T03:38:57.259Z,20.30
2019-06-08T03:41:27.101Z,20.30
2019-06-08T03:43:56.880Z,20.30
2019-06-08T03:46:26.705Z,20.40
2019-06-08T03:48:56.524Z,20.20
2019-06-08T03:51:26.339Z,20.30
2019-06-08T03:53:56.115Z,20.30
2019-06-08T03:56:26.812Z,20.40
2019-06-08T03:58:56.826Z,20.50
2019-06-08T04:01:26.633Z,20.60
2019-06-08T04:03:59.949Z,20.60
2019-06-08T04:06:27.996Z,20.60
2019-06-08T04:08:57.777Z,20.60
2019-06-08T04:11:27.687Z,20.70
2019-06-08T04:13:57.581Z,20.70
2019-06-08T04:16:27.512Z,20.70
2019-06-08T04:18:57.420Z,20.70
2019-06-08T04:21:27.302Z,20.80
2019-06-08T04:23:57.249Z,20.60
2019-06-08T04:26:27.049Z,20.40
2019-06-08T04:28:57.194Z,20.50
2019-06-08T04:31:27.099Z,20.60
2019-06-08T04:33:56.932Z,20.70
2019-06-08T04:36:26.781Z,20.60
2019-06-08T04:38:56.621Z,20.60
2019-06-08T04:41:26.503Z,20.70
2019-06-08T04:43:56.833Z,20.70
2019-06-08T04:46:26.687Z,20.80
2019-06-08T04:48:56.571Z,20.80
2019-06-08T04:51:26.360Z,21.00
2019-06-08T04:53:56.259Z,21.20
2019-06-08T04:56:26.117Z,21.20
2019-06-08T04:58:55.899Z,21.40
2019-06-08T05:01:25.714Z,21.50
2019-06-08T05:03:55.787Z,21.60
2019-06-08T05:06:25.694Z,21.50
2019-06-08T05:08:55.595Z,21.50
2019-06-08T05:11:25.404Z,21.40
2019-06-08T05:13:55.252Z,21.40
2019-06-08T05:16:25.070Z,21.50
2019-06-08T05:18:54.939Z,21.60
2019-06-08T05:21:24.719Z,21.70
2019-06-08T05:23:58.743Z,21.80
2019-06-08T05:26:26.112Z,22.00
2019-06-08T05:28:55.891Z,22.10
2019-06-08T05:31:25.732Z,22.30
2019-06-08T05:33:55.554Z,22.30
2019-06-08T05:36:25.514Z,22.30
2019-06-08T05:38:55.335Z,22.20
2019-06-08T05:41:25.486Z,22.30
2019-06-08T05:43:55.300Z,22.60
2019-06-08T05:46:25.240Z,22.70
2019-06-08T05:48:55.109Z,22.70
2019-06-08T05:51:24.981Z,22.80
2019-06-08T05:53:54.828Z,22.90
2019-06-08T05:56:24.795Z,22.70
2019-06-08T05:58:54.595Z,22.80
2019-06-08T06:01:24.556Z,23.10
2019-06-08T06:03:54.391Z,23.30
2019-06-08T06:06:24.286Z,23.40
2019-06-08T06:08:54.215Z,23.60
2019-06-08T06:11:24.110Z,23.70
2019-06-08T06:13:53.973Z,23.80
2019-06-08T06:16:23.807Z,23.70
2019-06-08T06:18:53.631Z,23.70
2019-06-08T06:21:23.461Z,23.90
2019-06-08T06:23:53.400Z,23.90
2019-06-08T06:26:23.195Z,24.10
2019-06-08T06:28:53.131Z,24.10
2019-06-08T06:31:22.933Z,24.10
2019-06-08T06:33:52.764Z,24.30
2019-06-08T06:36:22.592Z,24.40
2019-06-08T06:38:52.420Z,24.50
2019-06-08T06:41:22.265Z,24.50
2019-06-08T06:43:52.298Z,24.60
2019-06-08T06:46:22.235Z,24.70
2019-06-08T06:48:52.535Z,24.60
2019-06-08T06:51:26.300Z,24.50
2019-06-08T06:53:54.118Z,24.40
2019-06-08T06:56:23.958Z,24.40
2019-06-08T06:58:53.846Z,24.50
2019-06-08T07:01:23.890Z,24.60
2019-06-08T07:03:54.354Z,24.80
2019-06-08T07:06:24.300Z,25.00
2019-06-08T07:08:54.604Z,25.10
2019-06-08T07:11:24.667Z,25.20
2019-06-08T07:13:55.151Z,25.20
2019-06-08T07:16:25.113Z,25.10
2019-06-08T07:18:55.071Z,25.10
2019-06-08T07:21:24.861Z,25.20
2019-06-08T07:23:56.194Z,25.20
2019-06-08T07:26:26.329Z,25.20
2019-06-08T07:28:56.201Z,25.20
2019-06-08T07:31:26.039Z,25.20
2019-06-08T07:33:55.956Z,25.30
2019-06-08T07:36:25.754Z,25.30
2019-06-08T07:38:55.576Z,25.50
2019-06-08T07:41:25.474Z,25.40
2019-06-08T07:43:56.420Z,25.30
2019-06-08T07:46:26.557Z,25.10
2019-06-08T07:48:56.683Z,25.20
2019-06-08T07:51:26.552Z,25.20
2019-06-08T07:53:56.429Z,25.40
2019-06-08T07:56:26.226Z,25.30
2019-06-08T07:58:57.057Z,25.40
2019-06-08T08:01:35.680Z,25.30
2019-06-08T08:03:58.540Z,25.40
2019-06-08T08:06:30.547Z,25.20
2019-06-08T08:08:59.924Z,25.30
2019-06-08T08:11:29.773Z,25.50
2019-06-08T08:13:59.565Z,25.70
2019-06-08T08:16:29.583Z,25.90
2019-06-08T08:18:59.717Z,25.90
2019-06-08T08:21:29.871Z,25.90
2019-06-08T08:24:01.490Z,25.80
2019-06-08T08:26:34.222Z,25.90
2019-06-08T08:29:04.527Z,26.10
2019-06-08T08:31:34.399Z,26.20
2019-06-08T08:34:05.980Z,26.20
2019-06-08T08:36:37.944Z,26.40
2019-06-08T08:39:08.611Z,26.40
2019-06-08T08:41:39.155Z,26.30
2019-06-08T08:44:09.148Z,26.40
2019-06-08T08:46:39.066Z,26.50
2019-06-08T08:49:12.313Z,26.50
2019-06-08T08:51:40.348Z,26.40
2019-06-08T08:54:10.272Z,26.30
2019-06-08T08:56:40.114Z,26.30
2019-06-08T08:59:10.859Z,26.30
2019-06-08T09:01:41.103Z,26.40
2019-06-08T09:04:11.001Z,26.30
2019-06-08T09:06:40.792Z,26.40
2019-06-08T09:09:10.737Z,26.40
2019-06-08T09:11:41.283Z,26.40
2019-06-08T09:14:13.887Z,26.50
2019-06-08T09:16:43.135Z,26.40
2019-06-08T09:19:12.919Z,26.40
2019-06-08T09:21:42.741Z,26.50
2019-06-08T09:24:12.918Z,26.60
2019-06-08T09:26:42.790Z,26.70
2019-06-08T09:29:12.546Z,26.70
2019-06-08T09:31:42.390Z,26.80
2019-06-08T09:34:15.481Z,26.90
2019-06-08T09:36:43.905Z,27.00
2019-06-08T09:39:13.913Z,27.10
2019-06-08T09:41:43.883Z,27.20
2019-06-08T09:44:13.911Z,27.10
2019-06-08T09:46:43.918Z,27.00
2019-06-08T09:49:13.877Z,27.00
2019-06-08T09:51:43.758Z,27.20
2019-06-08T09:54:14.024Z,27.30
2019-06-08T09:56:43.903Z,27.30
2019-06-08T09:59:15.395Z,27.40
2019-06-08T10:01:45.220Z,27.40
2019-06-08T10:04:15.070Z,27.50
2019-06-08T10:06:47.790Z,27.50
2019-06-08T10:09:18.669Z,27.50
2019-06-08T10:11:48.161Z,27.50
2019-06-08T10:14:18.761Z,27.60
2019-06-08T10:16:48.903Z,27.60
2019-06-08T10:19:18.838Z,27.60
2019-06-08T10:21:48.842Z,27.60
2019-06-08T10:24:18.651Z,27.60
2019-06-08T10:26:48.546Z,27.50
2019-06-08T10:29:18.586Z,27.20
2019-06-08T10:31:48.603Z,27.20
2019-06-08T10:34:18.455Z,27.20
2019-06-08T10:36:48.271Z,27.30
2019-06-08T10:39:18.063Z,27.50
2019-06-08T10:41:51.334Z,27.50
2019-06-08T10:44:19.545Z,27.60
2019-06-08T10:46:49.436Z,27.80
2019-06-08T10:49:19.401Z,27.70
2019-06-08T10:51:49.377Z,27.80
2019-06-08T10:54:19.206Z,27.80
2019-06-08T10:56:49.046Z,27.90
2019-06-08T10:59:18.811Z,28.00
2019-06-08T11:01:48.658Z,28.00
2019-06-08T11:04:18.679Z,28.20
2019-06-08T11:06:48.691Z,28.20
2019-06-08T11:09:19.056Z,28.20
2019-06-08T11:11:49.414Z,28.20
2019-06-08T11:14:22.527Z,28.10
2019-06-08T11:16:50.790Z,28.30
2019-06-08T11:19:20.725Z,28.40
2019-06-08T11:21:50.542Z,28.10
2019-06-08T11:24:24.407Z,28.10
2019-06-08T11:26:51.984Z,28.10
2019-06-08T11:29:21.772Z,28.30
2019-06-08T11:31:51.568Z,28.30
2019-06-08T11:34:21.785Z,28.20
2019-06-08T11:36:52.053Z,28.30
2019-06-08T11:39:22.021Z,28.40
2019-06-08T11:41:51.845Z,28.50
2019-06-08T11:44:21.741Z,28.40
2019-06-08T11:46:51.480Z,28.40
2019-06-08T11:49:21.329Z,28.50
2019-06-08T11:51:51.144Z,28.60
2019-06-08T11:54:32.322Z,28.60
2019-06-08T11:56:54.543Z,28.60
2019-06-08T11:59:25.591Z,28.70
2019-06-08T12:01:55.412Z,28.90
2019-06-08T12:04:25.334Z,28.90
2019-06-08T12:06:55.192Z,28.70
2019-06-08T12:09:24.995Z,28.70
2019-06-08T12:11:54.819Z,28.60
2019-06-08T12:14:24.639Z,28.70
2019-06-08T12:16:54.462Z,28.60
2019-06-08T12:19:24.308Z,28.70
2019-06-08T12:21:54.110Z,28.70
2019-06-08T12:24:24.085Z,28.80
2019-06-08T12:27:00.031Z,28.70
2019-06-08T12:29:25.404Z,28.80
2019-06-08T12:31:55.321Z,28.80
2019-06-08T12:34:25.383Z,28.80
2019-06-08T12:36:55.149Z,28.80
2019-06-08T12:39:24.963Z,28.70
2019-06-08T12:41:54.785Z,28.70
2019-06-08T12:44:26.788Z,28.70
2019-06-08T12:46:58.380Z,28.70
2019-06-08T12:49:27.696Z,28.70
2019-06-08T12:51:58.368Z,28.60
2019-06-08T12:54:28.415Z,28.70
2019-06-08T12:57:00.716Z,28.70
2019-06-08T12:59:29.753Z,28.60
2019-06-08T13:01:59.588Z,28.70
2019-06-08T13:04:29.416Z,28.70
2019-06-08T13:06:59.254Z,28.80
2019-06-08T13:09:30.036Z,28.80
2019-06-08T13:11:59.965Z,28.80
2019-06-08T13:14:29.839Z,28.90
2019-06-08T13:17:01.111Z,29.10
2019-06-08T13:19:31.067Z,29.10
2019-06-08T13:22:00.903Z,28.90
2019-06-08T13:24:30.672Z,28.80
2019-06-08T13:27:00.488Z,29.00
2019-06-08T13:29:30.339Z,29.10
2019-06-08T13:32:01.563Z,29.20
2019-06-08T13:34:31.779Z,29.20
2019-06-08T13:37:01.618Z,29.30
2019-06-08T13:39:31.445Z,29.20
2019-06-08T13:42:01.275Z,29.10
2019-06-08T13:44:31.094Z,29.10
2019-06-08T13:47:01.017Z,29.20
2019-06-08T13:49:31.044Z,29.20
2019-06-08T13:52:01.044Z,29.10
2019-06-08T13:54:31.314Z,29.10
2019-06-08T13:57:01.253Z,29.20
2019-06-08T13:59:31.143Z,29.20
2019-06-08T14:02:01.420Z,29.20
2019-06-08T14:04:32.994Z,29.30
2019-06-08T14:07:02.952Z,29.20
2019-06-08T14:09:33.138Z,29.20
2019-06-08T14:12:03.045Z,29.20
2019-06-08T14:14:33.712Z,29.10
2019-06-08T14:17:03.689Z,29.10
2019-06-08T14:19:33.597Z,29.10
2019-06-08T14:22:03.349Z,29.00
2019-06-08T14:24:34.778Z,28.90
2019-06-08T14:27:04.745Z,28.90
2019-06-08T14:29:34.606Z,29.00
2019-06-08T14:32:04.536Z,29.00
2019-06-08T14:34:34.357Z,28.90
2019-06-08T14:37:04.297Z,28.80
2019-06-08T14:39:34.131Z,28.90
2019-06-08T14:42:03.904Z,29.00
2019-06-08T14:44:34.076Z,29.00
2019-06-08T14:47:14.368Z,28.90
2019-06-08T14:49:48.827Z,28.90
2019-06-08T14:52:20.434Z,28.80
2019-06-08T14:54:51.255Z,28.70
2019-06-08T14:57:21.347Z,28.80
2019-06-08T14:59:51.337Z,29.00
2019-06-08T15:02:21.266Z,29.00
2019-06-08T15:04:51.168Z,28.90
2019-06-08T15:07:23.429Z,29.10
2019-06-08T15:09:52.662Z,29.10
2019-06-08T15:12:23.499Z,29.10
2019-06-08T15:14:53.422Z,29.10
2019-06-08T15:17:23.762Z,29.10
2019-06-08T15:19:53.927Z,29.10
2019-06-08T15:22:24.191Z,29.10
2019-06-08T15:24:54.048Z,29.10
2019-06-08T15:27:25.868Z,29.10
2019-06-08T15:29:55.398Z,29.20
2019-06-08T15:32:28.048Z,29.20
2019-06-08T15:34:57.731Z,29.10
2019-06-08T15:37:29.324Z,29.00
2019-06-08T15:39:59.252Z,29.00
2019-06-08T15:42:30.747Z,29.10
2019-06-08T15:45:00.664Z,29.20
2019-06-08T15:47:30.444Z,29.00
2019-06-08T15:50:00.340Z,28.90
2019-06-08T15:52:32.564Z,29.00
2019-06-08T15:55:01.764Z,29.10
2019-06-08T15:57:36.637Z,29.00
2019-06-08T16:00:03.240Z,29.00
2019-06-08T16:02:33.919Z,29.00
2019-06-08T16:05:04.022Z,29.10
2019-06-08T16:07:35.601Z,29.10
2019-06-08T16:10:06.170Z,29.20
2019-06-08T16:12:36.093Z,29.20
2019-06-08T16:15:06.706Z,29.20
2019-06-08T16:17:36.768Z,29.20
2019-06-08T16:20:06.991Z,29.20
2019-06-08T16:22:36.806Z,29.20
2019-06-08T16:25:06.831Z,29.10
2019-06-08T16:27:36.649Z,29.00
2019-06-08T16:30:09.487Z,28.90
2019-06-08T16:32:39.810Z,29.00
2019-06-08T16:35:09.960Z,28.90
2019-06-08T16:37:39.970Z,28.80
2019-06-08T16:40:10.163Z,28.60
2019-06-08T16:42:39.979Z,28.50
2019-06-08T16:45:10.013Z,28.50
2019-06-08T16:47:43.239Z,28.50
2019-06-08T16:50:24.135Z,28.50
2019-06-08T16:52:43.651Z,28.50
2019-06-08T16:55:13.448Z,28.50
2019-06-08T16:57:43.326Z,28.60
2019-06-08T17:00:31.154Z,28.60
2019-06-08T17:02:45.350Z,28.70
2019-06-08T17:05:15.377Z,28.60
2019-06-08T17:07:45.257Z,28.40
2019-06-08T17:10:15.270Z,28.20
2019-06-08T17:12:45.072Z,28.10
2019-06-08T17:15:15.968Z,28.10
2019-06-08T17:17:45.863Z,28.00
2019-06-08T17:20:17.643Z,28.00
2019-06-08T17:22:47.487Z,27.70
2019-06-08T17:25:18.926Z,27.80
2019-06-08T17:27:48.808Z,27.90
2019-06-08T17:30:18.680Z,27.90
2019-06-08T17:32:48.622Z,27.90
2019-06-08T17:35:18.625Z,27.90
2019-06-08T17:37:48.400Z,27.90
2019-06-08T17:40:18.380Z,27.90
2019-06-08T17:42:48.180Z,27.90
2019-06-08T17:45:18.367Z,27.70
2019-06-08T17:47:48.202Z,27.50
2019-06-08T17:50:18.533Z,27.30
2019-06-08T17:52:48.366Z,27.20
2019-06-08T17:55:18.165Z,27.10
2019-06-08T17:57:53.200Z,26.90
2019-06-08T18:00:20.056Z,26.90
2019-06-08T18:02:49.955Z,26.80
2019-06-08T18:05:19.758Z,26.90
2019-06-08T18:07:49.686Z,26.90
2019-06-08T18:10:19.479Z,26.80
2019-06-08T18:12:49.509Z,26.70
2019-06-08T18:15:19.736Z,26.70
2019-06-08T18:17:49.523Z,26.60
2019-06-08T18:20:19.556Z,26.40
2019-06-08T18:22:50.151Z,26.40
2019-06-08T18:25:20.112Z,26.40
2019-06-08T18:28:05.538Z,26.40
2019-06-08T18:30:24.047Z,26.40
2019-06-08T18:32:53.967Z,26.40
2019-06-08T18:35:23.770Z,26.40
2019-06-08T18:37:54.254Z,26.30
2019-06-08T18:40:24.141Z,26.20
2019-06-08T18:42:54.663Z,26.20
2019-06-08T18:45:24.603Z,26.10
2019-06-08T18:50:23.589Z,26.00
2019-06-08T18:52:53.467Z,26.00
2019-06-08T18:55:23.281Z,25.90
2019-06-08T18:57:53.048Z,25.90
2019-06-08T19:00:37.993Z,25.90
2019-06-08T19:03:07.787Z,25.80
2019-06-08T19:05:40.656Z,25.90
2019-06-08T19:08:10.619Z,25.80
2019-06-08T19:10:42.341Z,25.80
2019-06-08T19:13:12.661Z,25.70
2019-06-08T19:15:45.508Z,25.70
2019-06-08T19:18:14.302Z,25.60
2019-06-08T19:20:47.231Z,25.50
2019-06-08T19:23:20.687Z,25.60
2019-06-08T19:25:49.187Z,25.60
2019-06-08T19:28:32.666Z,25.60
2019-06-08T19:30:51.538Z,25.60
2019-06-08T19:33:21.484Z,25.60
2019-06-08T19:35:53.598Z,25.60
2019-06-08T19:38:22.784Z,25.50
2019-06-08T19:40:52.536Z,25.50
2019-06-08T19:43:22.315Z,25.50
2019-06-08T19:45:52.294Z,25.50
2019-06-08T19:48:22.245Z,25.40
2019-06-08T19:50:54.191Z,25.40
2019-06-08T19:53:23.471Z,25.30
2019-06-08T19:55:54.167Z,25.20
2019-06-08T19:58:24.159Z,25.20
2019-06-08T20:00:54.926Z,25.20
2019-06-08T20:03:27.368Z,25.20
2019-06-08T20:05:56.651Z,25.20
2019-06-08T20:08:28.590Z,25.30
2019-06-08T20:10:57.922Z,25.30
2019-06-08T20:13:27.841Z,25.20
2019-06-08T20:16:01.869Z,25.20
2019-06-08T20:18:29.244Z,25.20
2019-06-08T20:20:59.148Z,25.30
2019-06-08T20:23:29.040Z,25.20
2019-06-08T20:26:00.694Z,25.10
2019-06-08T20:28:30.328Z,25.10
2019-06-08T20:31:00.748Z,25.10
2019-06-08T20:33:30.668Z,25.10
2019-06-08T20:36:00.478Z,25.00
2019-06-08T20:38:37.261Z,25.00
2019-06-08T20:41:01.871Z,25.00
2019-06-08T20:43:31.755Z,25.00
2019-06-08T20:46:01.571Z,25.00
2019-06-08T20:48:31.477Z,25.00
2019-06-08T20:51:01.286Z,25.00
2019-06-08T20:53:31.163Z,24.90
2019-06-08T20:56:00.976Z,24.90
2019-06-08T20:58:30.826Z,24.80
2019-06-08T21:01:00.563Z,24.80
2019-06-08T21:03:30.415Z,24.80
2019-06-08T21:06:00.187Z,24.70
2019-06-08T21:08:30.025Z,24.70
2019-06-08T21:10:59.886Z,24.70
2019-06-08T21:13:29.815Z,24.60
2019-06-08T21:16:00.804Z,24.40
2019-06-08T21:18:30.987Z,24.50
2019-06-08T21:21:00.746Z,24.40
2019-06-08T21:23:32.142Z,24.20
2019-06-08T21:26:02.188Z,24.10
2019-06-08T21:28:31.971Z,24.20
2019-06-08T21:31:02.411Z,24.30
2019-06-08T21:33:32.396Z,24.30
2019-06-08T21:36:04.990Z,24.30
2019-06-08T21:38:33.817Z,24.30
2019-06-08T21:41:03.642Z,24.40
2019-06-08T21:43:33.473Z,24.40
2019-06-08T21:46:03.296Z,24.30
2019-06-08T21:48:33.112Z,24.30
2019-06-08T21:51:02.983Z,24.30
2019-06-08T21:53:33.028Z,24.20
2019-06-08T21:56:02.980Z,24.20
2019-06-08T21:58:32.928Z,24.20
2019-06-08T22:01:02.927Z,24.20
2019-06-08T22:03:32.788Z,24.30
2019-06-08T22:06:02.675Z,24.30
2019-06-08T22:08:32.536Z,24.20
2019-06-08T22:11:02.735Z,24.20
2019-06-08T22:13:32.649Z,24.10
2019-06-08T22:16:04.235Z,24.20
2019-06-08T22:18:34.045Z,24.10
2019-06-08T22:21:03.840Z,24.00
2019-06-08T22:23:33.660Z,23.80
2019-06-08T22:26:03.691Z,23.80
2019-06-08T22:28:33.651Z,23.70
2019-06-08T22:31:03.824Z,23.60
2019-06-08T22:33:33.689Z,23.50
2019-06-08T22:36:03.583Z,23.50
2019-06-08T22:38:33.399Z,23.30
2019-06-08T22:41:03.528Z,23.20
2019-06-08T22:43:33.350Z,23.30
2019-06-08T22:46:03.547Z,23.20
2019-06-08T22:48:33.403Z,23.30
2019-06-08T22:51:04.288Z,23.30
2019-06-08T22:53:34.304Z,23.40
2019-06-08T22:56:04.500Z,23.30
2019-06-08T22:58:34.515Z,23.20
2019-06-08T23:01:07.874Z,23.30
2019-06-08T23:03:35.848Z,23.20
2019-06-08T23:06:08.593Z,23.10
2019-06-08T23:08:37.522Z,22.90
2019-06-08T23:11:08.518Z,22.90
2019-06-08T23:13:38.649Z,22.70
2019-06-08T23:16:09.016Z,22.70
2019-06-08T23:18:39.059Z,22.80
2019-06-08T23:21:09.061Z,22.80
2019-06-08T23:23:39.009Z,22.80
2019-06-08T23:26:10.509Z,22.80
2019-06-08T23:28:40.587Z,22.80
2019-06-08T23:31:19.773Z,22.80
2019-06-08T23:33:50.625Z,22.90
2019-06-08T23:36:45.425Z,22.90
2019-06-08T23:38:51.863Z,22.90
2019-06-08T23:41:21.679Z,22.90
2019-06-08T23:43:51.695Z,23.00
2019-06-08T23:46:21.596Z,23.00
2019-06-08T23:48:51.424Z,23.00
2019-06-08T23:51:21.297Z,22.90
2019-06-08T23:53:51.081Z,22.80
2019-06-08T23:56:20.933Z,22.80
2019-06-08T23:58:50.802Z,22.90
